This is the latest recevied weather packets stored in our database for station/object HB9DOZ-13. If no packets are shown the sender has not sent any weather packets the latest 10 day(s).
| Time | Temp. | Humidity | Pressure | Rain* | Wind** | Luminosity | Snow |
|---|---|---|---|---|---|---|---|
| 1777487716 | 15.56° C | 49% | - | 0 mm | - | - | - |
| 1777482317 | 17.78° C | 49% | - | 0 mm | - | - | - |
| 1777481715 | 17.78° C | 50% | - | 0 mm | - | - | - |
| 1777480516 | 18.33° C | 50% | - | 0 mm | - | - | - |
| 1777476316 | 18.33° C | 54% | - | 0 mm | - | - | - |
| 1777472736 | 18.33° C | 57% | - | 0 mm | - | - | - |
| 1777467916 | 18.33° C | 58% | - | 0 mm | - | - | - |
| 1777467316 | 17.78° C | 59% | - | 0 mm | - | - | - |
| 1777463116 | 17.78° C | 59% | - | 0 mm | - | - | - |
| 1777448116 | 12.22° C | 70% | - | 0 mm | - | - | - |
| 1777444517 | 11.67° C | 74% | - | 0 mm | - | - | - |
| 1777442116 | 11.11° C | 82% | - | 0 mm | - | - | - |
| 1777428317 | 11.67° C | 86% | - | 0 mm | - | - | - |
| 1777426536 | 11.67° C | 86% | - | 0 mm | - | - | - |
| 1777419917 | 12.78° C | 79% | - | 0 mm | - | - | - |
| 1777419317 | 12.78° C | 78% | - | 0 mm | - | - | - |
| 1777415717 | 13.89° C | 68% | - | 0 mm | - | - | - |
| 1777414515 | 13.89° C | 70% | - | 0 mm | - | - | - |
| 1777413316 | 13.89° C | 70% | - | 0 mm | - | - | - |
| 1777412716 | 13.89° C | 70% | - | 0 mm | - | - | - |
| 1777411517 | 13.89° C | 71% | - | 0 mm | - | - | - |
| 1777401335 | 15.56° C | 72% | - | 0 mm | - | - | - |
| 1777399518 | 15.56° C | 70% | - | 0 mm | - | - | - |
| 1777398358 | 16.11° C | 69% | - | 0 mm | - | - | - |
| 1777392317 | 17.78° C | 65% | - | 0 mm | - | - | - |
* Rain latest hour (hover to see other rain measurements)
** Current wind speed in m/s (hover to see current wind gust speed)